Time;durP1;ratioP1;P1;durP2;ratioP2;P2;SDS_P1;SDS_P2;PMS_P1;PMS_P2;Temp;Humidity;BMP_temperature;BMP_pressure;BME280_temperature;BME280_humidity;BME280_pressure;Samples;Min_cycle;Max_cycle;Signal;HPM_P1;HPM_P2
2021/09/01 00:00:07;;;;;;;0.00;0.00;;;;;;;17.09;72.61;99813.59;5051626;28;20651;-73
2021/09/01 00:02:35;;;;;;;0.10;0.10;;;;;;;17.06;72.75;99812.06;5049063;28;20049;-76
2021/09/01 00:05:02;;;;;;;0.00;0.00;;;;;;;17.05;72.26;99815.75;5048838;28;20048;-72
2021/09/01 00:07:30;;;;;;;0.00;0.00;;;;;;;17.05;72.52;99809.56;5048765;28;20448;-74
2021/09/01 00:09:57;;;;;;;0.00;0.00;;;;;;;17.07;72.37;99812.91;5049101;28;20060;-76
2021/09/01 00:12:24;;;;;;;0.00;0.00;;;;;;;17.07;72.55;99815.56;5048560;28;20159;-71
2021/09/01 00:14:51;;;;;;;0.00;0.00;;;;;;;17.04;72.69;99814.06;5047433;28;20496;-72
2021/09/01 00:17:17;;;;;;;0.20;0.20;;;;;;;17.01;72.62;99822.41;5048833;28;20052;-70
2021/09/01 00:19:46;;;;;;;0.10;0.10;;;;;;;16.98;72.62;99820.91;5048599;28;20049;-70
2021/09/01 00:22:14;;;;;;;0.00;0.00;;;;;;;16.97;72.70;99815.72;5046407;28;20053;-72
2021/09/01 00:24:41;;;;;;;0.00;0.00;;;;;;;16.96;72.73;99817.56;5045833;28;20041;-72
2021/09/01 00:27:08;;;;;;;0.00;0.00;;;;;;;16.97;72.67;99818.41;5048448;28;20041;-70
2021/09/01 00:29:36;;;;;;;0.00;0.00;;;;;;;16.94;72.47;99819.56;5047945;28;20052;-70
2021/09/01 00:32:04;;;;;;;0.00;0.00;;;;;;;16.94;72.77;99816.03;5047988;28;20106;-72
2021/09/01 00:34:31;;;;;;;0.00;0.00;;;;;;;16.92;72.70;99824.19;5048579;28;20056;-71
2021/09/01 00:36:59;;;;;;;0.00;0.00;;;;;;;16.91;72.67;99827.88;5049032;28;20045;-66
2021/09/01 00:39:26;;;;;;;0.00;0.00;;;;;;;16.92;72.51;99823.38;5048440;28;20636;-69
2021/09/01 00:41:53;;;;;;;0.00;0.00;;;;;;;16.92;72.55;99829.53;5050082;28;20053;-68
2021/09/01 00:44:23;;;;;;;0.00;0.00;;;;;;;16.93;72.63;99833.06;5050574;28;20536;-69
2021/09/01 00:46:51;;;;;;;0.10;0.10;;;;;;;16.92;72.53;99829.53;5053707;28;20489;-70
2021/09/01 00:49:18;;;;;;;0.00;0.00;;;;;;;16.90;72.69;99834.22;5047917;28;20052;-71
2021/09/01 00:51:46;;;;;;;4.53;1.10;;;;;;;16.88;72.67;99838.03;5047732;28;20049;-68
2021/09/01 00:54:16;;;;;;;0.00;0.00;;;;;;;16.86;72.79;99848.06;5045753;28;20051;-70
2021/09/01 00:56:44;;;;;;;0.00;0.00;;;;;;;16.80;72.87;99852.16;5048453;28;20120;-70
2021/09/01 00:59:14;;;;;;;0.10;0.10;;;;;;;16.77;72.90;99844.47;5049091;28;20041;-69
2021/09/01 01:01:42;;;;;;;0.08;0.08;;;;;;;16.73;72.79;99841.31;5048463;28;20420;-73
2021/09/01 01:04:09;;;;;;;0.00;0.00;;;;;;;16.70;72.83;99840.78;5048088;28;20049;-71
2021/09/01 01:06:36;;;;;;;0.00;0.00;;;;;;;16.67;72.87;99841.94;5048797;28;20139;-72
2021/09/01 01:09:03;;;;;;;0.00;0.00;;;;;;;16.62;73.01;99850.44;5046943;28;20056;-69
2021/09/01 01:11:32;;;;;;;0.00;0.00;;;;;;;16.60;72.88;99840.91;5049115;28;20053;-69
2021/09/01 01:13:59;;;;;;;0.00;0.00;;;;;;;16.58;72.98;99849.09;5047714;28;20052;-71
2021/09/01 01:16:27;;;;;;;0.05;0.05;;;;;;;16.58;73.01;99843.75;5047799;28;20554;-70
2021/09/01 01:18:55;;;;;;;0.00;0.00;;;;;;;16.57;73.14;99847.41;5047510;28;20046;-69
2021/09/01 01:21:24;;;;;;;0.13;0.13;;;;;;;16.56;73.08;99850.22;5047378;28;20049;-70
2021/09/01 01:23:52;;;;;;;0.55;0.55;;;;;;;16.56;72.86;99851.06;5046314;28;20099;-70
2021/09/01 01:26:22;;;;;;;0.25;0.25;;;;;;;16.55;72.91;99851.22;5046478;28;20073;-69
2021/09/01 01:28:53;;;;;;;0.00;0.00;;;;;;;16.56;73.05;99848.38;5047102;28;20059;-70
2021/09/01 01:31:20;;;;;;;0.00;0.00;;;;;;;16.54;73.01;99852.22;5047921;28;20056;-71
2021/09/01 01:33:47;;;;;;;0.00;0.00;;;;;;;16.53;72.89;99863.88;5048632;28;20048;-69
2021/09/01 01:36:15;;;;;;;0.00;0.00;;;;;;;16.52;72.82;99849.72;5045236;28;20517;-69
2021/09/01 01:38:42;;;;;;;0.25;0.25;;;;;;;16.48;72.99;99859.03;5047351;28;20064;-68
2021/09/01 01:41:09;;;;;;;0.00;0.00;;;;;;;16.47;73.09;99859.19;5046962;28;20140;-69
2021/09/01 01:43:38;;;;;;;0.00;0.00;;;;;;;16.46;73.12;99869.00;5047037;28;20408;-68
2021/09/01 01:46:05;;;;;;;0.00;0.00;;;;;;;16.47;73.15;99870.66;5047129;28;20051;-69
2021/09/01 01:48:34;;;;;;;0.00;0.00;;;;;;;16.44;73.09;99874.50;5045642;28;20052;-71
2021/09/01 01:51:01;;;;;;;0.00;0.00;;;;;;;16.45;73.21;99875.31;5047362;28;20052;-69
2021/09/01 01:53:29;;;;;;;0.00;0.00;;;;;;;16.45;73.22;99875.31;5051412;28;20102;-70
2021/09/01 01:55:56;;;;;;;0.00;0.00;;;;;;;16.46;73.06;99882.34;5053488;28;20524;-70
2021/09/01 01:58:23;;;;;;;0.00;0.00;;;;;;;16.46;73.09;99882.34;5050448;28;20053;-70
2021/09/01 02:00:52;;;;;;;0.00;0.00;;;;;;;16.47;73.02;99886.66;5051077;28;20140;-72
2021/09/01 02:03:20;;;;;;;0.00;0.00;;;;;;;16.46;73.03;99882.34;5046806;28;20064;-74
2021/09/01 02:05:46;;;;;;;0.00;0.00;;;;;;;16.46;73.10;99879.69;5047265;28;20064;-75
2021/09/01 02:08:13;;;;;;;0.10;0.10;;;;;;;16.48;72.94;99887.53;5046654;28;20079;-75
2021/09/01 02:10:40;;;;;;;0.65;0.32;;;;;;;16.46;73.00;99894.81;5047147;28;20049;-74
2021/09/01 02:13:08;;;;;;;0.00;0.00;;;;;;;16.42;73.16;99886.28;5047843;28;20057;-71
2021/09/01 02:15:35;;;;;;;0.00;0.00;;;;;;;16.41;73.08;99884.66;5047203;28;20045;-75
2021/09/01 02:18:03;;;;;;;0.00;0.00;;;;;;;16.40;73.28;99883.81;5047140;28;20536;-77
2021/09/01 02:20:30;;;;;;;0.20;0.20;;;;;;;16.40;73.12;99885.63;5047464;28;20144;-69
2021/09/01 02:22:57;;;;;;;0.00;0.00;;;;;;;16.40;73.09;99890.94;5047249;28;20040;-72
2021/09/01 02:25:26;;;;;;;0.00;0.00;;;;;;;16.38;73.12;99888.44;5045863;28;20081;-72
2021/09/01 02:27:53;;;;;;;0.00;0.00;;;;;;;16.37;73.23;99892.13;5047925;28;20620;-75
2021/09/01 02:30:21;;;;;;;0.00;0.00;;;;;;;16.35;73.11;99891.44;5046684;28;20064;-72
2021/09/01 02:32:48;;;;;;;0.00;0.00;;;;;;;16.34;73.22;99891.59;5046890;28;20164;-69
2021/09/01 02:35:17;;;;;;;0.10;0.10;;;;;;;16.34;73.21;99903.09;5047227;28;20045;-71
2021/09/01 02:37:43;;;;;;;0.38;0.38;;;;;;;16.31;73.21;99897.22;5047270;28;20512;-76
2021/09/01 02:40:11;;;;;;;0.00;0.00;;;;;;;16.27;73.42;99898.56;5047666;28;20615;-73
2021/09/01 02:42:38;;;;;;;0.40;0.40;;;;;;;16.29;73.33;99901.88;5048328;28;20163;-71
2021/09/01 02:45:06;;;;;;;0.00;0.00;;;;;;;16.28;73.25;99898.41;5049926;28;20634;-70
2021/09/01 02:47:32;;;;;;;0.10;0.10;;;;;;;16.27;73.26;99895.88;5050044;28;20695;-74
2021/09/01 02:49:59;;;;;;;0.00;0.00;;;;;;;16.27;73.21;99898.56;5048731;28;20127;-75
2021/09/01 02:52:27;;;;;;;0.00;0.00;;;;;;;16.27;73.39;99903.88;5051068;28;20048;-71
2021/09/01 02:54:54;;;;;;;0.00;0.00;;;;;;;16.25;73.30;99902.19;5052916;28;20505;-73
2021/09/01 02:57:22;;;;;;;0.00;0.00;;;;;;;16.22;73.41;99905.19;5049639;28;20045;-72
2021/09/01 02:59:49;;;;;;;0.00;0.00;;;;;;;16.22;73.37;99909.66;5052550;28;20045;-74
2021/09/01 03:02:16;;;;;;;0.00;0.00;;;;;;;16.19;73.28;99913.50;5053869;28;20045;-73
2021/09/01 03:04:44;;;;;;;0.00;0.00;;;;;;;16.19;73.38;99913.50;5052827;28;20051;-74
2021/09/01 03:07:10;;;;;;;0.30;0.30;;;;;;;16.16;73.44;99913.78;5062697;28;20049;-70
2021/09/01 03:09:39;;;;;;;0.00;0.00;;;;;;;16.17;73.35;99918.16;5062895;28;20051;-73
2021/09/01 03:12:06;;;;;;;0.32;0.32;;;;;;;16.16;73.41;99913.78;5062830;28;20060;-70
2021/09/01 03:14:33;;;;;;;0.00;0.00;;;;;;;16.15;73.44;99921.94;5064225;28;20041;-74
2021/09/01 03:17:00;;;;;;;0.00;0.00;;;;;;;16.14;73.41;99913.13;5063524;28;20489;-71
2021/09/01 03:19:27;;;;;;;0.00;0.00;;;;;;;16.13;73.36;99915.94;5064842;28;20041;-71
2021/09/01 03:21:54;;;;;;;0.00;0.00;;;;;;;16.14;73.50;99917.63;5059625;28;20049;-76
2021/09/01 03:24:21;;;;;;;0.00;0.00;;;;;;;16.17;73.27;99915.47;5051935;28;20063;-73
2021/09/01 03:26:49;;;;;;;0.10;0.10;;;;;;;16.15;73.45;99933.44;5061261;28;20143;-73
2021/09/01 03:29:16;;;;;;;0.00;0.00;;;;;;;16.13;73.31;99930.09;5053616;28;20045;-75
2021/09/01 03:31:43;;;;;;;0.00;0.00;;;;;;;16.12;73.40;99932.94;5053503;28;20049;-73
2021/09/01 03:34:10;;;;;;;0.00;0.00;;;;;;;16.12;73.41;99940.91;5053897;28;20370;-72
2021/09/01 03:36:36;;;;;;;0.00;0.00;;;;;;;16.12;73.55;99947.06;5053216;28;20041;-73
2021/09/01 03:39:04;;;;;;;0.00;0.00;;;;;;;16.13;73.50;99943.41;5052627;28;20132;-72
2021/09/01 03:41:31;;;;;;;0.00;0.00;;;;;;;16.11;73.38;99945.38;5051121;28;20049;-74
2021/09/01 03:44:00;;;;;;;0.00;0.00;;;;;;;16.12;73.53;99959.56;5050688;28;20045;-72
2021/09/01 03:46:26;;;;;;;0.00;0.00;;;;;;;16.12;73.44;99959.56;5050597;28;20055;-72
2021/09/01 03:48:53;;;;;;;0.00;0.00;;;;;;;16.12;73.29;99960.41;5050056;28;20053;-74
2021/09/01 03:51:20;;;;;;;0.10;0.10;;;;;;;16.11;73.56;99964.03;5050211;28;20053;-73
2021/09/01 03:53:48;;;;;;;0.00;0.00;;;;;;;16.09;73.54;99970.53;5048914;28;20559;-73
2021/09/01 03:56:15;;;;;;;0.80;0.80;;;;;;;16.07;73.50;99973.34;5048883;28;20060;-74
2021/09/01 03:58:42;;;;;;;0.00;0.00;;;;;;;16.07;73.50;99970.69;5048811;28;20045;-72
2021/09/01 04:01:12;;;;;;;0.00;0.00;;;;;;;16.10;73.37;99975.72;5048870;28;20639;-72
2021/09/01 04:03:39;;;;;;;0.00;0.00;;;;;;;16.10;73.66;99981.03;5049157;28;20045;-73
2021/09/01 04:06:06;;;;;;;0.00;0.00;;;;;;;16.07;73.53;99978.66;5048261;28;20045;-73
2021/09/01 04:08:33;;;;;;;0.00;0.00;;;;;;;16.09;73.59;99981.19;5049498;28;20495;-74
2021/09/01 04:11:00;;;;;;;0.40;0.40;;;;;;;16.04;73.56;99982.50;5048942;28;20045;-74
2021/09/01 04:13:27;;;;;;;0.10;0.10;;;;;;;16.03;73.57;99993.28;5048952;28;20060;-74
2021/09/01 04:15:55;;;;;;;0.03;0.03;;;;;;;16.03;73.66;99996.78;5049704;28;20045;-74
2021/09/01 04:18:23;;;;;;;0.00;0.00;;;;;;;15.99;73.66;100000.75;5048367;28;20497;-72
2021/09/01 04:20:50;;;;;;;0.30;0.30;;;;;;;16.02;73.55;100002.25;5014209;28;20052;-72
2021/09/01 04:23:17;;;;;;;0.17;0.17;;;;;;;16.01;73.60;100003.28;5049026;28;20135;-73
2021/09/01 04:25:46;;;;;;;0.13;0.13;;;;;;;15.98;73.67;100009.72;5046094;28;20053;-75
2021/09/01 04:28:14;;;;;;;3.83;1.02;;;;;;;15.95;73.61;100012.69;5046814;28;20577;-74
2021/09/01 04:30:41;;;;;;;0.63;0.60;;;;;;;15.95;73.80;100017.19;5047980;28;20056;-72
2021/09/01 04:33:08;;;;;;;0.20;0.20;;;;;;;15.96;73.76;100021.53;5048531;28;20250;-75
2021/09/01 04:35:37;;;;;;;0.00;0.00;;;;;;;15.96;73.76;100030.34;5048412;28;20485;-71
2021/09/01 04:38:04;;;;;;;0.08;0.08;;;;;;;15.96;73.66;100024.19;5048257;28;20122;-70
2021/09/01 04:40:31;;;;;;;0.22;0.22;;;;;;;15.96;73.65;100041.00;5048014;28;20057;-72
2021/09/01 04:42:58;;;;;;;0.25;0.25;;;;;;;15.98;73.57;100035.53;5049836;28;20045;-75
2021/09/01 04:45:25;;;;;;;0.10;0.10;;;;;;;15.96;73.68;100050.81;5049788;28;20045;-76
2021/09/01 04:47:52;;;;;;;0.90;0.90;;;;;;;15.96;73.82;100054.31;5049322;28;20045;-74
2021/09/01 04:50:19;;;;;;;0.00;0.00;;;;;;;15.97;73.74;100050.69;5036974;28;20489;-73
2021/09/01 04:52:47;;;;;;;0.00;0.00;;;;;;;15.97;73.71;100053.34;5033217;28;20049;-73
2021/09/01 04:55:15;;;;;;;0.43;0.43;;;;;;;15.98;73.71;100059.50;5026925;28;20054;-73
2021/09/01 04:57:42;;;;;;;0.75;0.43;;;;;;;15.98;73.66;100063.00;5027388;28;20065;-68
2021/09/01 05:00:14;;;;;;;0.05;0.05;;;;;;;15.98;73.73;100065.66;5029313;28;20052;-73
2021/09/01 05:02:42;;;;;;;0.10;0.10;;;;;;;16.00;73.62;100062.84;5027582;28;20103;-75
2021/09/01 05:05:10;;;;;;;0.00;0.00;;;;;;;16.00;73.76;100062.84;5039122;28;20695;-73
2021/09/01 05:07:37;;;;;;;0.20;0.20;;;;;;;16.02;73.60;100061.69;5043353;28;20120;-74
2021/09/01 05:10:08;;;;;;;0.00;0.00;;;;;;;16.03;73.68;100068.72;5047061;28;20147;-75
2021/09/01 05:12:35;;;;;;;0.00;0.00;;;;;;;16.05;73.65;100071.22;5030927;28;20057;-81
2021/09/01 05:15:03;;;;;;;0.00;0.00;;;;;;;16.05;73.64;100066.72;5033330;28;20138;-80
2021/09/01 05:17:30;;;;;;;0.52;0.52;;;;;;;16.13;73.55;100073.94;5032785;28;20056;-79
2021/09/01 05:19:57;;;;;;;0.00;0.00;;;;;;;16.14;73.38;100075.66;5046624;28;20056;-77
2021/09/01 05:22:30;;;;;;;0.00;0.00;;;;;;;16.16;73.43;100071.00;5049070;28;20077;-79
2021/09/01 05:25:04;;;;;;;0.00;0.00;;;;;;;16.20;73.34;100069.69;5047093;28;20497;-77
2021/09/01 05:27:34;;;;;;;0.00;0.00;;;;;;;16.21;73.42;100060.72;5048619;28;20104;-75
2021/09/01 05:30:02;;;;;;;0.10;0.10;;;;;;;16.22;73.33;100070.41;5049249;28;20053;-73
2021/09/01 05:32:31;;;;;;;0.10;0.10;;;;;;;16.24;73.35;100071.09;5047313;28;20674;-77
2021/09/01 05:35:00;;;;;;;0.20;0.20;;;;;;;16.28;73.30;100076.09;5049016;28;20119;-76
2021/09/01 05:37:27;;;;;;;0.00;0.00;;;;;;;16.34;73.25;100078.16;5047260;28;20049;-69
2021/09/01 05:39:56;;;;;;;0.95;0.95;;;;;;;16.35;73.30;100075.34;5046648;28;20052;-73
2021/09/01 05:42:24;;;;;;;0.08;0.08;;;;;;;16.35;73.15;100080.69;5046215;28;20057;-70
2021/09/01 05:44:55;;;;;;;0.00;0.00;;;;;;;16.38;73.28;100084.84;5046478;28;20048;-71
2021/09/01 05:47:23;;;;;;;0.22;0.22;;;;;;;16.42;73.09;100092.41;5045915;28;20693;-76
2021/09/01 05:49:54;;;;;;;0.38;0.38;;;;;;;16.46;73.09;100095.59;5045853;28;20044;-72
2021/09/01 05:52:23;;;;;;;5.13;0.47;;;;;;;16.51;72.89;100088.00;5027241;28;20048;-73
2021/09/01 05:54:51;;;;;;;0.10;0.10;;;;;;;16.56;72.75;100093.66;5044483;28;20056;-71
2021/09/01 05:57:20;;;;;;;0.10;0.10;;;;;;;16.57;72.73;100098.03;5045560;28;20055;-71
2021/09/01 05:59:53;;;;;;;0.68;0.22;;;;;;;16.60;72.62;100092.38;5045234;28;20049;-74
2021/09/01 06:02:26;;;;;;;0.00;0.00;;;;;;;16.68;72.59;100090.78;5046317;28;20524;-70
2021/09/01 06:04:55;;;;;;;0.00;0.00;;;;;;;16.71;72.33;100093.97;5044614;28;20608;-72
2021/09/01 06:07:25;;;;;;;0.08;0.08;;;;;;;16.82;72.11;100103.56;5043189;28;20045;-72
2021/09/01 06:09:57;;;;;;;0.10;0.10;;;;;;;16.98;72.01;100103.69;5044957;28;20133;-71
2021/09/01 06:12:26;;;;;;;0.00;0.00;;;;;;;17.06;71.66;100108.25;5044057;28;20049;-71
2021/09/01 06:14:53;;;;;;;1.05;1.05;;;;;;;17.18;71.34;100111.50;5047888;28;20098;-76
2021/09/01 06:17:23;;;;;;;0.03;0.03;;;;;;;17.24;71.34;100110.84;5046594;28;20045;-75
2021/09/01 06:19:50;;;;;;;0.30;0.30;;;;;;;17.31;71.33;100111.06;5043544;28;20654;-72
2021/09/01 06:22:17;;;;;;;1.25;1.25;;;;;;;17.44;71.20;100107.97;5044106;28;20394;-72
2021/09/01 06:24:45;;;;;;;0.10;0.10;;;;;;;17.55;70.78;100111.16;5042268;28;20751;-77
2021/09/01 06:27:12;;;;;;;0.20;0.20;;;;;;;17.57;70.63;100119.03;5043098;28;20053;-74
2021/09/01 06:29:38;;;;;;;0.30;0.30;;;;;;;17.63;70.96;100125.56;5043043;28;20640;-71
2021/09/01 06:32:06;;;;;;;0.25;0.25;;;;;;;17.73;70.56;100127.09;5044794;28;20060;-69
2021/09/01 06:34:34;;;;;;;0.00;0.00;;;;;;;17.81;70.50;100112.09;5043182;28;20059;-72
2021/09/01 06:37:02;;;;;;;0.38;0.38;;;;;;;17.81;70.43;100130.81;5044130;28;20048;-73
2021/09/01 06:39:29;;;;;;;0.10;0.10;;;;;;;17.79;70.14;100128.31;5053931;28;20044;-71
2021/09/01 06:41:58;;;;;;;0.00;0.00;;;;;;;17.70;70.57;100132.78;5047068;28;20050;-72
2021/09/01 06:44:25;;;;;;;0.35;0.35;;;;;;;17.76;70.74;100137.47;5046046;28;20068;-73
2021/09/01 06:46:52;;;;;;;0.05;0.05;;;;;;;17.82;70.38;100129.81;5048097;28;20558;-69
2021/09/01 06:49:21;;;;;;;0.20;0.20;;;;;;;17.80;70.50;100131.81;5044118;28;20508;-71
2021/09/01 06:51:50;;;;;;;0.20;0.20;;;;;;;17.76;70.36;100142.81;5044321;28;20098;-75
2021/09/01 06:54:17;;;;;;;0.10;0.10;;;;;;;17.78;70.14;100140.81;5045402;28;20124;-71
2021/09/01 06:56:44;;;;;;;0.40;0.40;;;;;;;17.83;69.50;100137.69;5044493;28;20051;-71
2021/09/01 06:59:11;;;;;;;0.03;0.03;;;;;;;17.85;68.83;100151.75;5043395;28;20555;-73
2021/09/01 07:01:39;;;;;;;0.13;0.13;;;;;;;17.86;68.70;100148.09;5043091;28;20069;-73
2021/09/01 07:04:06;;;;;;;2.92;0.98;;;;;;;17.90;68.31;100149.44;5043586;28;20060;-72
2021/09/01 07:06:32;;;;;;;0.20;0.20;;;;;;;17.95;68.04;100156.94;5043400;28;20053;-74
2021/09/01 07:09:01;;;;;;;1.40;1.40;;;;;;;17.96;67.65;100158.63;5043671;28;20041;-73
2021/09/01 07:11:27;;;;;;;0.35;0.35;;;;;;;17.98;67.28;100161.97;5042114;28;20092;-77
2021/09/01 07:13:55;;;;;;;0.17;0.17;;;;;;;17.98;67.16;100167.31;5047679;28;20076;-73
2021/09/01 07:16:22;;;;;;;0.00;0.00;;;;;;;17.96;67.01;100174.66;5042960;28;20051;-74
2021/09/01 07:18:49;;;;;;;0.00;0.00;;;;;;;17.95;66.83;100179.19;5042015;28;20052;-73
2021/09/01 07:21:15;;;;;;;0.10;0.10;;;;;;;18.09;67.21;100176.88;5044354;28;20049;-73
2021/09/01 07:23:43;;;;;;;0.30;0.30;;;;;;;18.13;66.88;100180.91;5043819;28;20048;-75
2021/09/01 07:26:13;;;;;;;0.45;0.45;;;;;;;18.24;67.00;100177.94;5042596;28;20049;-76
2021/09/01 07:28:41;;;;;;;0.20;0.20;;;;;;;18.31;67.07;100191.47;5041948;28;20045;-75
2021/09/01 07:31:09;;;;;;;1.70;1.60;;;;;;;18.48;67.04;100190.53;5024093;28;20049;-74
2021/09/01 07:33:38;;;;;;;0.32;0.32;;;;;;;18.54;66.18;100192.53;5042762;28;20051;-76
2021/09/01 07:36:05;;;;;;;0.10;0.10;;;;;;;18.61;66.15;100189.22;5042010;28;20048;-74
2021/09/01 07:38:32;;;;;;;0.55;0.55;;;;;;;18.66;65.55;100192.22;5042546;28;20056;-71
2021/09/01 07:40:59;;;;;;;1.40;0.65;;;;;;;18.68;65.51;100196.41;5040546;28;20051;-72
2021/09/01 07:43:29;;;;;;;0.57;0.57;;;;;;;18.76;65.72;100198.25;5040523;28;20071;-74
2021/09/01 07:45:56;;;;;;;0.10;0.10;;;;;;;18.84;65.29;100195.63;5040781;28;20102;-73
2021/09/01 07:48:23;;;;;;;0.10;0.10;;;;;;;19.05;64.89;100199.63;5042695;28;20052;-75
2021/09/01 07:50:51;;;;;;;0.20;0.20;;;;;;;19.31;64.64;100196.78;5049146;28;20049;-75
2021/09/01 07:53:18;;;;;;;0.15;0.15;;;;;;;19.38;64.43;100196.94;5041226;28;20417;-75
2021/09/01 07:55:45;;;;;;;0.57;0.57;;;;;;;19.35;63.57;100199.94;5044379;28;20053;-73
2021/09/01 07:58:12;;;;;;;0.50;0.50;;;;;;;19.27;63.63;100196.28;5044756;28;20045;-73
2021/09/01 08:00:41;;;;;;;0.28;0.28;;;;;;;19.48;63.64;100202.91;5043823;28;20155;-73
2021/09/01 08:03:09;;;;;;;0.30;0.30;;;;;;;19.69;63.16;100199.69;5042338;28;20045;-73
2021/09/01 08:05:36;;;;;;;0.13;0.10;;;;;;;19.57;62.39;100196.56;5041569;28;20079;-72
2021/09/01 08:08:04;;;;;;;0.30;0.30;;;;;;;19.32;61.72;100213.66;5049446;28;20056;-72
2021/09/01 08:10:33;;;;;;;0.10;0.10;;;;;;;19.15;61.54;100205.66;5044283;28;20045;-73
2021/09/01 08:13:00;;;;;;;0.30;0.30;;;;;;;19.16;61.12;100210.00;5043339;28;20048;-73
2021/09/01 08:15:27;;;;;;;0.43;0.43;;;;;;;19.27;61.41;100204.31;5043417;28;20417;-74
2021/09/01 08:17:55;;;;;;;3.30;1.27;;;;;;;19.41;60.71;100220.69;5048292;28;20056;-73
2021/09/01 08:20:22;;;;;;;0.22;0.22;;;;;;;19.64;60.44;100224.34;5047570;28;20048;-74
2021/09/01 08:22:50;;;;;;;0.00;0.00;;;;;;;19.93;60.41;100228.28;5044779;28;20053;-74
2021/09/01 08:25:18;;;;;;;0.10;0.10;;;;;;;19.92;60.70;100234.66;5041811;28;20099;-70
2021/09/01 08:27:49;;;;;;;0.30;0.30;;;;;;;19.76;59.30;100232.03;5032200;28;20060;-72
2021/09/01 08:30:16;;;;;;;0.85;0.85;;;;;;;19.70;58.83;100227.31;5033294;28;20661;-71
2021/09/01 08:32:43;;;;;;;1.02;0.85;;;;;;;19.88;59.17;100232.50;5037876;28;20128;-72
2021/09/01 08:35:12;;;;;;;0.08;0.08;;;;;;;20.25;58.96;100230.00;5033283;28;20049;-72
2021/09/01 08:37:39;;;;;;;0.00;0.00;;;;;;;20.44;57.68;100241.31;5031967;28;20064;-75
2021/09/01 08:40:09;;;;;;;0.63;0.63;;;;;;;20.26;56.78;100222.81;5035260;28;20136;-73
2021/09/01 08:42:38;;;;;;;0.08;0.08;;;;;;;20.23;56.84;100250.78;5034844;28;20042;-71
2021/09/01 08:45:10;;;;;;;0.00;0.00;;;;;;;20.33;56.48;100239.88;5030609;28;20068;-69
2021/09/01 08:47:39;;;;;;;0.70;0.70;;;;;;;20.31;55.70;100241.91;5037760;28;20052;-72
2021/09/01 08:50:06;;;;;;;1.83;0.90;;;;;;;20.15;54.20;100231.22;5034610;28;20174;-74
2021/09/01 08:52:37;;;;;;;0.10;0.10;;;;;;;20.32;54.86;100248.09;5034569;28;20045;-74
2021/09/01 08:55:10;;;;;;;0.68;0.65;;;;;;;20.58;53.90;100245.94;5034442;28;20493;-72
2021/09/01 08:57:37;;;;;;;0.13;0.13;;;;;;;20.56;53.37;100247.13;5032553;28;20082;-73
2021/09/01 09:00:05;;;;;;;0.10;0.10;;;;;;;20.43;53.15;100253.06;5029910;28;20421;-71
2021/09/01 09:02:32;;;;;;;0.17;0.17;;;;;;;20.56;52.08;100247.13;5038069;28;20390;-72
2021/09/01 09:04:59;;;;;;;0.43;0.43;;;;;;;20.77;51.43;100246.53;5029773;28;20059;-74
2021/09/01 09:07:26;;;;;;;0.55;0.40;;;;;;;20.90;51.88;100248.63;5028497;28;20045;-73
2021/09/01 09:09:54;;;;;;;1.50;1.33;;;;;;;20.81;52.13;100255.88;5035027;28;20564;-74
2021/09/01 09:12:34;;;;;;;0.98;0.82;;;;;;;20.61;52.66;100263.56;5030839;28;20064;-72
2021/09/01 09:15:04;;;;;;;0.22;0.22;;;;;;;20.44;52.91;100263.63;5029850;28;20054;-72
2021/09/01 09:17:37;;;;;;;0.03;0.03;;;;;;;20.49;52.26;100259.56;5030003;28;20045;-71
2021/09/01 09:20:06;;;;;;;0.30;0.30;;;;;;;20.35;52.53;100256.63;5030982;28;20555;-76
2021/09/01 09:22:43;;;;;;;0.00;0.00;;;;;;;20.41;53.20;100269.31;5033126;28;20128;-73
2021/09/01 09:25:14;;;;;;;1.55;1.45;;;;;;;20.70;51.95;100261.66;5023769;28;20049;-75
2021/09/01 09:27:47;;;;;;;0.28;0.28;;;;;;;20.66;51.71;100261.19;5032865;28;20076;-71
2021/09/01 09:30:25;;;;;;;0.20;0.20;;;;;;;20.94;51.25;100256.16;4987677;28;20057;-72
2021/09/01 09:32:57;;;;;;;0.20;0.20;;;;;;;21.10;50.74;100257.84;5022225;28;20049;-71
2021/09/01 09:35:26;;;;;;;0.70;0.70;;;;;;;21.29;50.58;100258.38;5025646;28;20064;-76
2021/09/01 09:38:04;;;;;;;0.55;0.55;;;;;;;21.32;49.98;100260.69;5024852;28;20053;-73
2021/09/01 09:40:34;;;;;;;1.33;0.88;;;;;;;21.10;50.01;100265.91;5040803;28;20052;-75
2021/09/01 09:43:17;;;;;;;1.02;0.65;;;;;;;20.94;50.36;100268.72;5046350;28;20447;-77
2021/09/01 09:45:45;;;;;;;0.63;0.63;;;;;;;20.79;50.64;100274.84;5042345;28;20052;-72
2021/09/01 09:48:12;;;;;;;0.57;0.57;;;;;;;21.13;50.51;100278.16;5040183;28;20052;-70
2021/09/01 09:50:47;;;;;;;0.20;0.20;;;;;;;21.45;49.96;100277.09;5041438;28;20037;-70
2021/09/01 09:53:14;;;;;;;0.32;0.22;;;;;;;21.52;49.97;100277.19;5040956;28;20622;-70
2021/09/01 09:56:08;;;;;;;0.32;0.32;;;;;;;21.50;50.06;100277.38;5038188;28;20049;-71
2021/09/01 09:58:37;;;;;;;0.20;0.20;;;;;;;21.46;50.01;100270.66;5040153;28;20124;-71
2021/09/01 10:01:05;;;;;;;0.30;0.30;;;;;;;21.33;49.90;100273.94;5040466;28;20049;-71
2021/09/01 10:03:33;;;;;;;1.05;0.98;;;;;;;21.54;49.84;100275.97;5043147;28;20060;-75
2021/09/01 10:06:01;;;;;;;10.40;7.40;;;;;;;21.72;49.48;100278.34;5043020;28;20072;-71
2021/09/01 10:08:30;;;;;;;7.75;6.25;;;;;;;21.57;49.14;100274.78;5040553;28;20045;-74
2021/09/01 10:11:00;;;;;;;9.23;6.97;;;;;;;21.28;49.61;100280.88;5039970;28;20049;-73
2021/09/01 10:13:30;;;;;;;9.90;6.22;;;;;;;20.95;50.54;100286.50;5043409;28;20053;-73
2021/09/01 10:16:01;;;;;;;8.85;5.68;;;;;;;20.88;50.46;100293.59;5042446;28;20135;-74
2021/09/01 10:18:30;;;;;;;7.95;5.55;;;;;;;21.00;51.17;100294.88;5040882;28;20055;-74
2021/09/01 10:20:58;;;;;;;8.23;5.75;;;;;;;21.09;51.08;100293.78;5043588;28;20251;-76
2021/09/01 10:23:37;;;;;;;8.55;6.80;;;;;;;21.10;51.27;100292.75;5038321;28;20048;-75
2021/09/01 10:26:21;;;;;;;10.38;7.10;;;;;;;21.02;51.58;100303.56;5039690;28;20053;-74
2021/09/01 10:28:49;;;;;;;8.68;5.70;;;;;;;20.93;51.01;100299.28;5042462;28;20060;-73
2021/09/01 10:31:21;;;;;;;9.05;5.65;;;;;;;21.10;52.03;100300.00;5040268;28;20045;-72
2021/09/01 10:33:51;;;;;;;7.63;6.15;;;;;;;21.29;51.44;100296.00;5040717;28;20063;-74
2021/09/01 10:36:37;;;;;;;9.75;5.53;;;;;;;21.53;51.54;100290.44;5040392;28;20128;-74
2021/09/01 10:39:35;;;;;;;8.35;5.85;;;;;;;21.72;50.65;100294.47;5040272;28;20041;-74
2021/09/01 10:42:33;;;;;;;11.02;5.10;;;;;;;21.44;51.48;100296.88;5040772;28;20076;-73
2021/09/01 10:45:02;;;;;;;8.80;5.65;;;;;;;21.29;50.46;100296.00;5037982;28;20451;-73
2021/09/01 10:48:03;;;;;;;7.82;5.10;;;;;;;21.17;52.96;100293.72;5039072;28;20056;-74
2021/09/01 10:50:31;;;;;;;7.93;6.15;;;;;;;21.30;51.72;100297.66;5040028;28;20061;-72
2021/09/01 10:53:00;;;;;;;10.25;5.93;;;;;;;21.24;52.55;100301.06;5038099;28;20083;-72
2021/09/01 10:55:27;;;;;;;7.18;5.43;;;;;;;21.19;53.80;100310.50;5038491;28;20049;-72
2021/09/01 10:58:17;;;;;;;8.40;5.88;;;;;;;21.05;54.13;100308.59;5041578;28;20095;-72
2021/09/01 11:00:54;;;;;;;9.30;6.40;;;;;;;20.85;53.13;100310.91;5039196;28;20060;-73
2021/09/01 11:03:35;;;;;;;8.10;5.43;;;;;;;20.86;53.83;100311.75;5040831;28;20416;-73
2021/09/01 11:06:13;;;;;;;8.82;7.13;;;;;;;20.74;53.94;100322.03;5039521;28;20049;-73
2021/09/01 11:09:03;;;;;;;11.43;6.22;;;;;;;20.65;55.01;100320.41;5038955;28;20056;-73
2021/09/01 11:11:55;;;;;;;7.60;6.50;;;;;;;20.72;54.68;100332.09;5040979;28;20170;-72
2021/09/01 11:14:31;;;;;;;9.48;6.53;;;;;;;20.75;54.33;100335.28;4978327;28;20678;-73
2021/09/01 11:17:00;;;;;;;10.90;7.10;;;;;;;20.70;54.46;100334.13;4980107;28;20231;-73
2021/09/01 11:19:27;;;;;;;10.57;7.30;;;;;;;20.54;54.21;100341.19;4992608;28;20050;-73
2021/09/01 11:21:55;;;;;;;10.90;5.78;;;;;;;20.58;53.60;100328.28;4977457;28;20616;-73
2021/09/01 11:24:23;;;;;;;10.10;6.10;;;;;;;20.63;52.65;100320.56;4976141;28;20058;-72
2021/09/01 11:26:54;;;;;;;8.02;4.55;;;;;;;20.83;52.90;100325.50;4979837;28;20057;-73
2021/09/01 11:29:30;;;;;;;5.53;4.10;;;;;;;21.12;51.42;100331.03;4977047;28;20074;-73
2021/09/01 11:31:57;;;;;;;9.07;5.30;;;;;;;21.46;49.60;100326.28;4982818;28;20057;-74
2021/09/01 11:34:27;;;;;;;7.65;3.88;;;;;;;21.67;49.19;100323.75;4982648;28;20047;-74
2021/09/01 11:36:54;;;;;;;6.22;3.80;;;;;;;22.09;48.54;100321.47;4981593;28;20081;-72